sensor_id;sensor_type;location;lat;lon;timestamp;P1;durP1;ratioP1;P2;durP2;ratioP2
41233;SDS011;26968;42.686;23.352;2023-07-31T00:01:58;3.67;;;3.05;;
41233;SDS011;26968;42.686;23.352;2023-07-31T00:04:23;5.65;;;3.72;;
41233;SDS011;26968;42.686;23.352;2023-07-31T00:06:49;3.92;;;3.30;;
41233;SDS011;26968;42.686;23.352;2023-07-31T00:09:14;4.53;;;3.88;;
41233;SDS011;26968;42.686;23.352;2023-07-31T00:11:40;5.03;;;3.58;;
41233;SDS011;26968;42.686;23.352;2023-07-31T00:14:05;5.57;;;4.28;;
41233;SDS011;26968;42.686;23.352;2023-07-31T00:16:30;5.53;;;3.85;;
41233;SDS011;26968;42.686;23.352;2023-07-31T00:18:56;5.25;;;3.78;;
41233;SDS011;26968;42.686;23.352;2023-07-31T00:21:21;7.65;;;3.67;;
41233;SDS011;26968;42.686;23.352;2023-07-31T00:23:47;4.05;;;3.28;;
41233;SDS011;26968;42.686;23.352;2023-07-31T00:26:12;6.72;;;3.80;;
41233;SDS011;26968;42.686;23.352;2023-07-31T00:28:38;6.85;;;3.65;;
41233;SDS011;26968;42.686;23.352;2023-07-31T00:31:03;5.43;;;3.42;;
41233;SDS011;26968;42.686;23.352;2023-07-31T00:33:29;4.95;;;3.90;;
41233;SDS011;26968;42.686;23.352;2023-07-31T00:35:56;4.50;;;3.58;;
41233;SDS011;26968;42.686;23.352;2023-07-31T00:38:21;5.85;;;4.38;;
41233;SDS011;26968;42.686;23.352;2023-07-31T00:40:47;6.22;;;3.85;;
41233;SDS011;26968;42.686;23.352;2023-07-31T00:43:12;9.10;;;5.03;;
41233;SDS011;26968;42.686;23.352;2023-07-31T00:45:37;5.25;;;4.18;;
41233;SDS011;26968;42.686;23.352;2023-07-31T00:48:04;6.32;;;4.05;;
41233;SDS011;26968;42.686;23.352;2023-07-31T00:50:31;5.45;;;4.55;;
41233;SDS011;26968;42.686;23.352;2023-07-31T00:52:56;5.85;;;4.47;;
41233;SDS011;26968;42.686;23.352;2023-07-31T00:55:23;6.57;;;5.05;;
41233;SDS011;26968;42.686;23.352;2023-07-31T00:57:49;11.95;;;5.50;;
41233;SDS011;26968;42.686;23.352;2023-07-31T01:00:15;8.07;;;6.32;;
41233;SDS011;26968;42.686;23.352;2023-07-31T01:02:40;10.50;;;6.50;;
41233;SDS011;26968;42.686;23.352;2023-07-31T01:05:06;9.75;;;7.82;;
41233;SDS011;26968;42.686;23.352;2023-07-31T01:07:38;10.90;;;8.98;;
41233;SDS011;26968;42.686;23.352;2023-07-31T01:12:45;12.05;;;9.77;;
41233;SDS011;26968;42.686;23.352;2023-07-31T01:15:13;12.45;;;9.82;;
41233;SDS011;26968;42.686;23.352;2023-07-31T01:17:41;15.07;;;10.27;;
41233;SDS011;26968;42.686;23.352;2023-07-31T01:20:11;12.00;;;9.98;;
41233;SDS011;26968;42.686;23.352;2023-07-31T01:28:03;16.83;;;12.50;;
41233;SDS011;26968;42.686;23.352;2023-07-31T01:30:33;20.83;;;13.43;;
41233;SDS011;26968;42.686;23.352;2023-07-31T01:33:02;17.17;;;14.20;;
41233;SDS011;26968;42.686;23.352;2023-07-31T01:35:34;16.98;;;14.13;;
41233;SDS011;26968;42.686;23.352;2023-07-31T01:38:05;23.63;;;16.23;;
41233;SDS011;26968;42.686;23.352;2023-07-31T01:40:30;20.63;;;16.80;;
41233;SDS011;26968;42.686;23.352;2023-07-31T01:42:56;20.63;;;17.13;;
41233;SDS011;26968;42.686;23.352;2023-07-31T01:45:21;23.10;;;17.75;;
41233;SDS011;26968;42.686;23.352;2023-07-31T01:47:47;20.00;;;17.05;;
41233;SDS011;26968;42.686;23.352;2023-07-31T01:50:12;25.00;;;19.45;;
41233;SDS011;26968;42.686;23.352;2023-07-31T01:52:38;28.25;;;22.25;;
41233;SDS011;26968;42.686;23.352;2023-07-31T01:55:03;29.38;;;23.23;;
41233;SDS011;26968;42.686;23.352;2023-07-31T01:57:29;32.50;;;24.15;;
41233;SDS011;26968;42.686;23.352;2023-07-31T01:59:54;36.63;;;26.98;;
41233;SDS011;26968;42.686;23.352;2023-07-31T02:02:20;33.03;;;25.58;;
41233;SDS011;26968;42.686;23.352;2023-07-31T02:04:48;31.55;;;24.02;;
41233;SDS011;26968;42.686;23.352;2023-07-31T02:07:13;32.67;;;23.50;;
41233;SDS011;26968;42.686;23.352;2023-07-31T02:09:39;29.90;;;24.20;;
41233;SDS011;26968;42.686;23.352;2023-07-31T02:12:04;30.25;;;22.13;;
41233;SDS011;26968;42.686;23.352;2023-07-31T02:14:30;27.50;;;23.13;;
41233;SDS011;26968;42.686;23.352;2023-07-31T02:16:55;27.85;;;23.25;;
41233;SDS011;26968;42.686;23.352;2023-07-31T02:19:21;31.42;;;22.40;;
41233;SDS011;26968;42.686;23.352;2023-07-31T02:21:46;27.23;;;21.42;;
41233;SDS011;26968;42.686;23.352;2023-07-31T02:24:12;24.80;;;20.58;;
41233;SDS011;26968;42.686;23.352;2023-07-31T02:26:37;31.00;;;22.52;;
41233;SDS011;26968;42.686;23.352;2023-07-31T02:29:02;28.55;;;22.48;;
41233;SDS011;26968;42.686;23.352;2023-07-31T02:31:28;27.63;;;22.25;;
41233;SDS011;26968;42.686;23.352;2023-07-31T02:33:53;33.05;;;23.35;;
41233;SDS011;26968;42.686;23.352;2023-07-31T02:36:19;29.88;;;24.08;;
41233;SDS011;26968;42.686;23.352;2023-07-31T02:38:44;31.63;;;21.83;;
41233;SDS011;26968;42.686;23.352;2023-07-31T02:41:10;26.25;;;21.33;;
41233;SDS011;26968;42.686;23.352;2023-07-31T02:43:35;30.42;;;22.42;;
41233;SDS011;26968;42.686;23.352;2023-07-31T02:46:01;27.05;;;21.98;;
41233;SDS011;26968;42.686;23.352;2023-07-31T02:48:26;28.67;;;23.00;;
41233;SDS011;26968;42.686;23.352;2023-07-31T02:50:51;28.40;;;21.75;;
41233;SDS011;26968;42.686;23.352;2023-07-31T02:53:17;25.65;;;21.80;;
41233;SDS011;26968;42.686;23.352;2023-07-31T02:55:42;28.27;;;22.58;;
41233;SDS011;26968;42.686;23.352;2023-07-31T02:58:08;32.15;;;23.33;;
41233;SDS011;26968;42.686;23.352;2023-07-31T03:00:33;30.35;;;23.42;;
41233;SDS011;26968;42.686;23.352;2023-07-31T03:02:59;33.47;;;23.50;;
41233;SDS011;26968;42.686;23.352;2023-07-31T03:05:24;29.13;;;22.73;;
41233;SDS011;26968;42.686;23.352;2023-07-31T03:07:50;28.60;;;22.52;;
41233;SDS011;26968;42.686;23.352;2023-07-31T03:10:15;27.25;;;22.15;;
41233;SDS011;26968;42.686;23.352;2023-07-31T03:12:40;31.75;;;24.17;;
41233;SDS011;26968;42.686;23.352;2023-07-31T03:15:06;30.30;;;24.20;;
41233;SDS011;26968;42.686;23.352;2023-07-31T03:17:32;32.05;;;24.35;;
41233;SDS011;26968;42.686;23.352;2023-07-31T03:19:57;30.00;;;24.08;;
41233;SDS011;26968;42.686;23.352;2023-07-31T03:22:23;28.20;;;23.58;;
41233;SDS011;26968;42.686;23.352;2023-07-31T03:24:48;28.10;;;24.05;;
41233;SDS011;26968;42.686;23.352;2023-07-31T03:27:14;35.08;;;24.85;;
41233;SDS011;26968;42.686;23.352;2023-07-31T03:29:39;32.50;;;24.77;;
41233;SDS011;26968;42.686;23.352;2023-07-31T03:32:05;29.58;;;24.10;;
41233;SDS011;26968;42.686;23.352;2023-07-31T03:34:30;29.88;;;23.30;;
41233;SDS011;26968;42.686;23.352;2023-07-31T03:36:57;32.60;;;24.35;;
41233;SDS011;26968;42.686;23.352;2023-07-31T03:39:23;31.20;;;23.90;;
41233;SDS011;26968;42.686;23.352;2023-07-31T03:41:48;29.63;;;24.23;;
41233;SDS011;26968;42.686;23.352;2023-07-31T03:44:14;34.15;;;24.27;;
41233;SDS011;26968;42.686;23.352;2023-07-31T03:46:39;28.42;;;23.55;;
41233;SDS011;26968;42.686;23.352;2023-07-31T03:49:05;32.50;;;24.83;;
41233;SDS011;26968;42.686;23.352;2023-07-31T03:51:30;34.20;;;24.13;;
41233;SDS011;26968;42.686;23.352;2023-07-31T03:53:55;31.17;;;23.40;;
41233;SDS011;26968;42.686;23.352;2023-07-31T03:56:21;31.48;;;24.73;;
41233;SDS011;26968;42.686;23.352;2023-07-31T03:58:47;34.17;;;25.05;;
41233;SDS011;26968;42.686;23.352;2023-07-31T04:01:12;34.58;;;24.88;;
41233;SDS011;26968;42.686;23.352;2023-07-31T04:03:38;33.53;;;25.15;;
41233;SDS011;26968;42.686;23.352;2023-07-31T04:06:03;34.08;;;24.38;;
41233;SDS011;26968;42.686;23.352;2023-07-31T04:08:29;33.17;;;24.95;;
41233;SDS011;26968;42.686;23.352;2023-07-31T04:10:54;35.97;;;26.90;;
41233;SDS011;26968;42.686;23.352;2023-07-31T04:13:21;34.30;;;25.33;;
41233;SDS011;26968;42.686;23.352;2023-07-31T04:15:48;41.83;;;26.45;;
41233;SDS011;26968;42.686;23.352;2023-07-31T04:18:15;37.15;;;25.33;;
41233;SDS011;26968;42.686;23.352;2023-07-31T04:20:41;35.35;;;26.90;;
41233;SDS011;26968;42.686;23.352;2023-07-31T04:23:06;35.88;;;27.73;;
41233;SDS011;26968;42.686;23.352;2023-07-31T04:25:32;34.33;;;26.05;;
41233;SDS011;26968;42.686;23.352;2023-07-31T04:27:59;38.38;;;26.73;;
41233;SDS011;26968;42.686;23.352;2023-07-31T04:30:25;37.30;;;26.20;;
41233;SDS011;26968;42.686;23.352;2023-07-31T04:32:50;36.70;;;26.73;;
41233;SDS011;26968;42.686;23.352;2023-07-31T04:35:16;34.60;;;25.90;;
41233;SDS011;26968;42.686;23.352;2023-07-31T04:37:41;34.75;;;27.02;;
41233;SDS011;26968;42.686;23.352;2023-07-31T04:40:07;31.33;;;24.23;;
41233;SDS011;26968;42.686;23.352;2023-07-31T04:42:33;28.98;;;22.92;;
41233;SDS011;26968;42.686;23.352;2023-07-31T04:44:59;33.63;;;24.38;;
41233;SDS011;26968;42.686;23.352;2023-07-31T04:47:25;33.88;;;24.63;;
41233;SDS011;26968;42.686;23.352;2023-07-31T04:49:50;33.78;;;24.13;;
41233;SDS011;26968;42.686;23.352;2023-07-31T04:52:15;30.77;;;25.08;;
41233;SDS011;26968;42.686;23.352;2023-07-31T04:54:41;33.55;;;25.40;;
41233;SDS011;26968;42.686;23.352;2023-07-31T04:57:06;32.47;;;25.25;;
41233;SDS011;26968;42.686;23.352;2023-07-31T04:59:32;32.83;;;24.77;;
41233;SDS011;26968;42.686;23.352;2023-07-31T05:01:57;35.05;;;25.33;;
41233;SDS011;26968;42.686;23.352;2023-07-31T05:04:23;33.58;;;22.83;;
41233;SDS011;26968;42.686;23.352;2023-07-31T05:06:48;32.47;;;24.27;;
41233;SDS011;26968;42.686;23.352;2023-07-31T05:09:13;31.88;;;23.75;;
41233;SDS011;26968;42.686;23.352;2023-07-31T05:11:39;31.23;;;23.55;;
41233;SDS011;26968;42.686;23.352;2023-07-31T05:14:05;28.98;;;23.33;;
41233;SDS011;26968;42.686;23.352;2023-07-31T05:16:31;30.25;;;23.70;;
41233;SDS011;26968;42.686;23.352;2023-07-31T05:18:56;34.35;;;24.60;;
41233;SDS011;26968;42.686;23.352;2023-07-31T05:21:22;25.48;;;20.38;;
41233;SDS011;26968;42.686;23.352;2023-07-31T05:23:48;24.98;;;19.65;;
41233;SDS011;26968;42.686;23.352;2023-07-31T05:26:14;19.50;;;17.33;;
41233;SDS011;26968;42.686;23.352;2023-07-31T05:28:39;22.45;;;19.27;;
41233;SDS011;26968;42.686;23.352;2023-07-31T05:31:05;21.95;;;19.40;;
41233;SDS011;26968;42.686;23.352;2023-07-31T05:33:31;26.10;;;19.35;;
41233;SDS011;26968;42.686;23.352;2023-07-31T05:35:57;27.75;;;17.27;;
41233;SDS011;26968;42.686;23.352;2023-07-31T05:38:22;23.27;;;17.10;;
41233;SDS011;26968;42.686;23.352;2023-07-31T05:40:48;20.17;;;16.33;;
41233;SDS011;26968;42.686;23.352;2023-07-31T05:43:13;18.70;;;15.60;;
41233;SDS011;26968;42.686;23.352;2023-07-31T05:45:40;23.90;;;17.15;;
41233;SDS011;26968;42.686;23.352;2023-07-31T05:48:06;19.48;;;14.77;;
41233;SDS011;26968;42.686;23.352;2023-07-31T05:50:32;17.92;;;13.57;;
41233;SDS011;26968;42.686;23.352;2023-07-31T05:52:57;26.08;;;13.05;;
41233;SDS011;26968;42.686;23.352;2023-07-31T05:55:23;17.63;;;12.45;;
41233;SDS011;26968;42.686;23.352;2023-07-31T05:57:51;15.90;;;13.45;;
41233;SDS011;26968;42.686;23.352;2023-07-31T06:00:17;12.68;;;11.00;;
41233;SDS011;26968;42.686;23.352;2023-07-31T06:02:43;13.38;;;11.50;;
41233;SDS011;26968;42.686;23.352;2023-07-31T06:05:08;20.17;;;11.43;;
41233;SDS011;26968;42.686;23.352;2023-07-31T06:07:33;14.50;;;10.07;;
41233;SDS011;26968;42.686;23.352;2023-07-31T06:09:59;11.05;;;9.85;;
41233;SDS011;26968;42.686;23.352;2023-07-31T06:12:29;12.23;;;9.40;;
41233;SDS011;26968;42.686;23.352;2023-07-31T06:14:56;12.98;;;9.52;;
41233;SDS011;26968;42.686;23.352;2023-07-31T06:17:21;12.15;;;9.40;;
41233;SDS011;26968;42.686;23.352;2023-07-31T06:19:47;15.32;;;10.02;;
41233;SDS011;26968;42.686;23.352;2023-07-31T06:22:12;11.98;;;8.70;;
41233;SDS011;26968;42.686;23.352;2023-07-31T06:24:38;11.15;;;8.38;;
41233;SDS011;26968;42.686;23.352;2023-07-31T06:27:03;12.90;;;8.38;;
41233;SDS011;26968;42.686;23.352;2023-07-31T06:29:30;8.30;;;7.20;;
41233;SDS011;26968;42.686;23.352;2023-07-31T06:31:55;10.20;;;7.30;;
41233;SDS011;26968;42.686;23.352;2023-07-31T06:34:21;11.88;;;7.20;;
41233;SDS011;26968;42.686;23.352;2023-07-31T06:36:46;13.27;;;6.78;;
41233;SDS011;26968;42.686;23.352;2023-07-31T06:39:12;11.98;;;6.93;;
41233;SDS011;26968;42.686;23.352;2023-07-31T06:41:37;9.52;;;6.93;;
41233;SDS011;26968;42.686;23.352;2023-07-31T06:44:03;10.90;;;6.63;;
41233;SDS011;26968;42.686;23.352;2023-07-31T06:46:29;11.57;;;6.55;;
41233;SDS011;26968;42.686;23.352;2023-07-31T06:48:54;16.75;;;7.18;;
41233;SDS011;26968;42.686;23.352;2023-07-31T06:51:20;11.23;;;6.57;;
41233;SDS011;26968;42.686;23.352;2023-07-31T06:53:45;10.30;;;6.22;;
41233;SDS011;26968;42.686;23.352;2023-07-31T06:56:11;10.48;;;6.43;;
41233;SDS011;26968;42.686;23.352;2023-07-31T06:58:37;11.23;;;5.70;;
41233;SDS011;26968;42.686;23.352;2023-07-31T07:01:02;12.30;;;6.00;;
41233;SDS011;26968;42.686;23.352;2023-07-31T07:03:28;7.45;;;5.65;;
41233;SDS011;26968;42.686;23.352;2023-07-31T07:05:54;10.25;;;5.75;;
41233;SDS011;26968;42.686;23.352;2023-07-31T07:08:19;6.45;;;5.43;;
41233;SDS011;26968;42.686;23.352;2023-07-31T07:10:45;11.95;;;5.50;;
41233;SDS011;26968;42.686;23.352;2023-07-31T07:13:11;9.40;;;5.43;;
41233;SDS011;26968;42.686;23.352;2023-07-31T07:15:37;6.25;;;4.80;;
41233;SDS011;26968;42.686;23.352;2023-07-31T07:18:03;11.65;;;4.97;;
41233;SDS011;26968;42.686;23.352;2023-07-31T07:20:28;7.43;;;4.28;;
41233;SDS011;26968;42.686;23.352;2023-07-31T07:22:54;9.88;;;4.90;;
41233;SDS011;26968;42.686;23.352;2023-07-31T07:25:19;5.63;;;5.03;;
41233;SDS011;26968;42.686;23.352;2023-07-31T07:27:45;9.52;;;5.47;;
41233;SDS011;26968;42.686;23.352;2023-07-31T07:30:10;10.18;;;4.78;;
41233;SDS011;26968;42.686;23.352;2023-07-31T07:32:36;5.78;;;4.30;;
41233;SDS011;26968;42.686;23.352;2023-07-31T07:35:01;6.00;;;5.13;;
41233;SDS011;26968;42.686;23.352;2023-07-31T07:37:27;6.32;;;5.10;;
41233;SDS011;26968;42.686;23.352;2023-07-31T07:39:52;8.18;;;4.80;;
41233;SDS011;26968;42.686;23.352;2023-07-31T07:42:18;10.75;;;4.60;;
41233;SDS011;26968;42.686;23.352;2023-07-31T07:44:43;8.55;;;4.53;;
41233;SDS011;26968;42.686;23.352;2023-07-31T07:47:08;9.43;;;5.63;;
41233;SDS011;26968;42.686;23.352;2023-07-31T07:49:34;6.97;;;4.00;;
41233;SDS011;26968;42.686;23.352;2023-07-31T07:52:00;7.15;;;4.60;;
41233;SDS011;26968;42.686;23.352;2023-07-31T07:54:26;40.47;;;19.42;;
41233;SDS011;26968;42.686;23.352;2023-07-31T07:56:52;6.72;;;4.28;;
41233;SDS011;26968;42.686;23.352;2023-07-31T07:59:17;6.80;;;4.40;;
41233;SDS011;26968;42.686;23.352;2023-07-31T08:01:43;6.10;;;3.55;;
41233;SDS011;26968;42.686;23.352;2023-07-31T08:04:08;4.78;;;4.05;;
41233;SDS011;26968;42.686;23.352;2023-07-31T08:06:33;5.50;;;4.00;;
41233;SDS011;26968;42.686;23.352;2023-07-31T08:08:59;6.43;;;4.10;;
41233;SDS011;26968;42.686;23.352;2023-07-31T08:11:30;6.55;;;3.90;;
41233;SDS011;26968;42.686;23.352;2023-07-31T08:13:55;11.77;;;4.47;;
41233;SDS011;26968;42.686;23.352;2023-07-31T08:16:21;13.00;;;4.88;;
41233;SDS011;26968;42.686;23.352;2023-07-31T08:18:46;8.23;;;4.40;;
41233;SDS011;26968;42.686;23.352;2023-07-31T08:21:11;5.70;;;4.32;;
41233;SDS011;26968;42.686;23.352;2023-07-31T08:23:37;8.93;;;5.13;;
41233;SDS011;26968;42.686;23.352;2023-07-31T08:26:02;12.15;;;4.30;;
41233;SDS011;26968;42.686;23.352;2023-07-31T08:28:28;9.38;;;4.30;;
41233;SDS011;26968;42.686;23.352;2023-07-31T08:30:53;7.45;;;4.07;;
41233;SDS011;26968;42.686;23.352;2023-07-31T08:33:19;13.07;;;4.68;;
41233;SDS011;26968;42.686;23.352;2023-07-31T08:35:44;8.75;;;4.03;;
41233;SDS011;26968;42.686;23.352;2023-07-31T08:38:11;9.07;;;4.57;;
41233;SDS011;26968;42.686;23.352;2023-07-31T08:40:37;5.18;;;3.78;;
41233;SDS011;26968;42.686;23.352;2023-07-31T08:43:03;4.20;;;3.58;;
41233;SDS011;26968;42.686;23.352;2023-07-31T08:45:28;7.68;;;4.00;;
41233;SDS011;26968;42.686;23.352;2023-07-31T08:47:56;8.27;;;3.67;;
41233;SDS011;26968;42.686;23.352;2023-07-31T08:50:22;7.82;;;3.88;;
41233;SDS011;26968;42.686;23.352;2023-07-31T08:52:49;6.70;;;3.70;;
41233;SDS011;26968;42.686;23.352;2023-07-31T08:55:15;8.38;;;3.83;;
41233;SDS011;26968;42.686;23.352;2023-07-31T08:57:42;6.63;;;3.83;;
41233;SDS011;26968;42.686;23.352;2023-07-31T09:00:08;5.93;;;3.65;;
41233;SDS011;26968;42.686;23.352;2023-07-31T09:05:10;7.45;;;3.90;;
41233;SDS011;26968;42.686;23.352;2023-07-31T09:07:36;7.00;;;3.90;;
41233;SDS011;26968;42.686;23.352;2023-07-31T09:10:02;7.70;;;3.70;;
41233;SDS011;26968;42.686;23.352;2023-07-31T09:12:28;5.15;;;3.50;;
41233;SDS011;26968;42.686;23.352;2023-07-31T09:14:54;5.25;;;3.65;;
41233;SDS011;26968;42.686;23.352;2023-07-31T09:17:31;6.50;;;4.40;;
41233;SDS011;26968;42.686;23.352;2023-07-31T09:19:57;5.70;;;3.25;;
41233;SDS011;26968;42.686;23.352;2023-07-31T09:22:37;8.55;;;3.75;;
41233;SDS011;26968;42.686;23.352;2023-07-31T09:25:36;7.22;;;4.28;;
41233;SDS011;26968;42.686;23.352;2023-07-31T09:28:05;8.07;;;3.58;;
41233;SDS011;26968;42.686;23.352;2023-07-31T09:30:43;8.02;;;3.65;;
41233;SDS011;26968;42.686;23.352;2023-07-31T09:33:09;6.22;;;3.63;;
41233;SDS011;26968;42.686;23.352;2023-07-31T09:35:35;8.95;;;4.30;;
41233;SDS011;26968;42.686;23.352;2023-07-31T09:38:03;6.68;;;3.65;;
41233;SDS011;26968;42.686;23.352;2023-07-31T09:40:31;6.38;;;3.83;;
41233;SDS011;26968;42.686;23.352;2023-07-31T09:43:02;6.75;;;3.33;;
41233;SDS011;26968;42.686;23.352;2023-07-31T09:45:33;4.43;;;3.42;;
41233;SDS011;26968;42.686;23.352;2023-07-31T09:48:00;9.05;;;4.13;;
41233;SDS011;26968;42.686;23.352;2023-07-31T09:50:25;12.77;;;3.65;;
41233;SDS011;26968;42.686;23.352;2023-07-31T09:52:51;6.18;;;3.65;;
41233;SDS011;26968;42.686;23.352;2023-07-31T09:55:17;5.45;;;3.47;;
41233;SDS011;26968;42.686;23.352;2023-07-31T09:57:46;9.43;;;3.40;;
41233;SDS011;26968;42.686;23.352;2023-07-31T10:00:14;5.57;;;2.90;;
41233;SDS011;26968;42.686;23.352;2023-07-31T10:02:41;4.25;;;2.78;;
41233;SDS011;26968;42.686;23.352;2023-07-31T10:05:12;5.88;;;3.30;;
41233;SDS011;26968;42.686;23.352;2023-07-31T10:07:41;5.68;;;2.83;;
41233;SDS011;26968;42.686;23.352;2023-07-31T10:10:10;11.88;;;3.40;;
41233;SDS011;26968;42.686;23.352;2023-07-31T10:12:36;7.57;;;3.20;;
41233;SDS011;26968;42.686;23.352;2023-07-31T10:15:03;4.03;;;2.63;;
41233;SDS011;26968;42.686;23.352;2023-07-31T10:17:29;3.53;;;2.50;;
41233;SDS011;26968;42.686;23.352;2023-07-31T10:19:57;5.25;;;2.70;;
41233;SDS011;26968;42.686;23.352;2023-07-31T10:22:26;7.95;;;2.90;;
41233;SDS011;26968;42.686;23.352;2023-07-31T10:24:52;3.25;;;2.20;;
41233;SDS011;26968;42.686;23.352;2023-07-31T10:27:19;6.70;;;2.60;;
41233;SDS011;26968;42.686;23.352;2023-07-31T10:29:45;5.50;;;2.80;;
41233;SDS011;26968;42.686;23.352;2023-07-31T10:32:13;8.25;;;2.70;;
41233;SDS011;26968;42.686;23.352;2023-07-31T10:34:41;5.28;;;2.60;;
41233;SDS011;26968;42.686;23.352;2023-07-31T10:39:56;4.18;;;2.17;;
41233;SDS011;26968;42.686;23.352;2023-07-31T10:42:29;3.97;;;2.40;;
41233;SDS011;26968;42.686;23.352;2023-07-31T10:45:03;3.67;;;2.38;;
41233;SDS011;26968;42.686;23.352;2023-07-31T10:47:39;4.22;;;2.28;;
41233;SDS011;26968;42.686;23.352;2023-07-31T10:52:47;3.22;;;2.35;;
41233;SDS011;26968;42.686;23.352;2023-07-31T10:55:33;3.58;;;2.50;;
41233;SDS011;26968;42.686;23.352;2023-07-31T10:58:11;6.28;;;2.35;;
41233;SDS011;26968;42.686;23.352;2023-07-31T11:00:39;3.83;;;2.20;;
41233;SDS011;26968;42.686;23.352;2023-07-31T11:03:07;3.05;;;2.10;;
41233;SDS011;26968;42.686;23.352;2023-07-31T11:10:43;4.63;;;1.80;;
41233;SDS011;26968;42.686;23.352;2023-07-31T11:13:10;5.38;;;2.40;;
41233;SDS011;26968;42.686;23.352;2023-07-31T11:15:36;2.55;;;1.98;;
41233;SDS011;26968;42.686;23.352;2023-07-31T11:18:02;6.45;;;2.95;;
41233;SDS011;26968;42.686;23.352;2023-07-31T11:20:31;3.10;;;1.92;;
41233;SDS011;26968;42.686;23.352;2023-07-31T11:23:00;5.13;;;2.50;;
41233;SDS011;26968;42.686;23.352;2023-07-31T11:25:28;4.43;;;2.10;;
41233;SDS011;26968;42.686;23.352;2023-07-31T11:28:06;3.05;;;2.10;;
41233;SDS011;26968;42.686;23.352;2023-07-31T11:30:38;8.85;;;2.30;;
41233;SDS011;26968;42.686;23.352;2023-07-31T11:33:09;4.63;;;2.33;;
41233;SDS011;26968;42.686;23.352;2023-07-31T11:35:36;9.13;;;2.58;;
41233;SDS011;26968;42.686;23.352;2023-07-31T11:38:07;4.38;;;1.90;;
41233;SDS011;26968;42.686;23.352;2023-07-31T11:40:40;4.82;;;2.22;;
41233;SDS011;26968;42.686;23.352;2023-07-31T11:43:09;4.88;;;2.08;;
41233;SDS011;26968;42.686;23.352;2023-07-31T11:45:36;6.03;;;2.75;;
41233;SDS011;26968;42.686;23.352;2023-07-31T11:48:03;3.38;;;2.45;;
41233;SDS011;26968;42.686;23.352;2023-07-31T11:50:29;9.13;;;3.15;;
41233;SDS011;26968;42.686;23.352;2023-07-31T11:52:59;6.30;;;2.57;;
41233;SDS011;26968;42.686;23.352;2023-07-31T11:55:28;6.30;;;2.97;;
41233;SDS011;26968;42.686;23.352;2023-07-31T11:57:56;8.55;;;2.80;;
41233;SDS011;26968;42.686;23.352;2023-07-31T12:00:23;3.88;;;3.10;;
41233;SDS011;26968;42.686;23.352;2023-07-31T12:02:50;7.03;;;2.92;;
41233;SDS011;26968;42.686;23.352;2023-07-31T12:05:16;8.30;;;2.92;;
41233;SDS011;26968;42.686;23.352;2023-07-31T12:07:45;7.25;;;3.28;;
41233;SDS011;26968;42.686;23.352;2023-07-31T12:10:22;5.50;;;3.60;;
41233;SDS011;26968;42.686;23.352;2023-07-31T12:12:58;4.53;;;3.30;;
41233;SDS011;26968;42.686;23.352;2023-07-31T12:15:42;4.65;;;3.42;;
41233;SDS011;26968;42.686;23.352;2023-07-31T12:18:18;3.58;;;3.13;;
41233;SDS011;26968;42.686;23.352;2023-07-31T12:20:49;7.53;;;3.97;;
41233;SDS011;26968;42.686;23.352;2023-07-31T12:23:20;5.05;;;4.00;;
41233;SDS011;26968;42.686;23.352;2023-07-31T12:31:08;8.65;;;4.88;;
41233;SDS011;26968;42.686;23.352;2023-07-31T12:33:35;8.75;;;4.68;;
41233;SDS011;26968;42.686;23.352;2023-07-31T12:36:06;6.28;;;4.78;;
41233;SDS011;26968;42.686;23.352;2023-07-31T12:38:33;5.80;;;4.75;;
41233;SDS011;26968;42.686;23.352;2023-07-31T12:40:59;7.95;;;5.25;;
41233;SDS011;26968;42.686;23.352;2023-07-31T12:43:25;7.63;;;4.80;;
41233;SDS011;26968;42.686;23.352;2023-07-31T12:45:50;8.80;;;5.85;;
41233;SDS011;26968;42.686;23.352;2023-07-31T12:48:16;8.25;;;4.68;;
41233;SDS011;26968;42.686;23.352;2023-07-31T12:50:41;11.00;;;5.45;;
41233;SDS011;26968;42.686;23.352;2023-07-31T12:53:07;7.70;;;5.38;;
41233;SDS011;26968;42.686;23.352;2023-07-31T12:55:32;8.82;;;5.55;;
41233;SDS011;26968;42.686;23.352;2023-07-31T12:57:59;8.63;;;5.45;;
41233;SDS011;26968;42.686;23.352;2023-07-31T13:00:25;9.05;;;5.97;;
41233;SDS011;26968;42.686;23.352;2023-07-31T13:02:51;9.50;;;5.60;;
41233;SDS011;26968;42.686;23.352;2023-07-31T13:05:17;6.00;;;5.32;;
41233;SDS011;26968;42.686;23.352;2023-07-31T13:07:44;10.98;;;6.25;;
41233;SDS011;26968;42.686;23.352;2023-07-31T13:10:10;7.32;;;6.47;;
41233;SDS011;26968;42.686;23.352;2023-07-31T13:12:35;9.43;;;6.15;;
41233;SDS011;26968;42.686;23.352;2023-07-31T13:15:01;9.40;;;6.15;;
41233;SDS011;26968;42.686;23.352;2023-07-31T13:17:26;8.30;;;6.22;;
41233;SDS011;26968;42.686;23.352;2023-07-31T13:19:52;9.85;;;5.68;;
41233;SDS011;26968;42.686;23.352;2023-07-31T13:22:17;8.15;;;5.60;;
41233;SDS011;26968;42.686;23.352;2023-07-31T13:24:43;12.63;;;5.53;;
41233;SDS011;26968;42.686;23.352;2023-07-31T13:27:08;10.30;;;5.60;;
41233;SDS011;26968;42.686;23.352;2023-07-31T13:29:33;10.15;;;5.32;;
41233;SDS011;26968;42.686;23.352;2023-07-31T13:31:59;9.60;;;5.50;;
41233;SDS011;26968;42.686;23.352;2023-07-31T13:34:24;9.60;;;4.97;;
41233;SDS011;26968;42.686;23.352;2023-07-31T13:36:50;6.97;;;4.93;;
41233;SDS011;26968;42.686;23.352;2023-07-31T13:39:15;14.60;;;5.38;;
41233;SDS011;26968;42.686;23.352;2023-07-31T13:41:40;7.75;;;5.00;;
41233;SDS011;26968;42.686;23.352;2023-07-31T13:44:06;11.20;;;4.72;;
41233;SDS011;26968;42.686;23.352;2023-07-31T13:46:31;20.13;;;5.60;;
41233;SDS011;26968;42.686;23.352;2023-07-31T13:48:58;8.15;;;5.10;;
41233;SDS011;26968;42.686;23.352;2023-07-31T13:51:25;5.05;;;4.53;;
41233;SDS011;26968;42.686;23.352;2023-07-31T13:53:51;10.55;;;4.28;;
41233;SDS011;26968;42.686;23.352;2023-07-31T13:56:16;6.78;;;4.30;;
41233;SDS011;26968;42.686;23.352;2023-07-31T13:58:42;5.18;;;4.25;;
41233;SDS011;26968;42.686;23.352;2023-07-31T14:01:07;8.13;;;4.03;;
41233;SDS011;26968;42.686;23.352;2023-07-31T14:03:32;6.63;;;4.13;;
41233;SDS011;26968;42.686;23.352;2023-07-31T14:05:58;5.07;;;4.30;;
41233;SDS011;26968;42.686;23.352;2023-07-31T14:08:24;11.60;;;4.55;;
41233;SDS011;26968;42.686;23.352;2023-07-31T14:10:49;7.18;;;4.50;;
41233;SDS011;26968;42.686;23.352;2023-07-31T14:13:14;10.00;;;4.45;;
41233;SDS011;26968;42.686;23.352;2023-07-31T14:15:43;9.70;;;4.47;;
41233;SDS011;26968;42.686;23.352;2023-07-31T14:18:09;6.32;;;4.53;;
41233;SDS011;26968;42.686;23.352;2023-07-31T14:20:34;6.07;;;4.20;;
41233;SDS011;26968;42.686;23.352;2023-07-31T14:23:00;6.28;;;4.55;;
41233;SDS011;26968;42.686;23.352;2023-07-31T14:25:27;8.38;;;4.05;;
41233;SDS011;26968;42.686;23.352;2023-07-31T14:27:52;7.38;;;4.13;;
41233;SDS011;26968;42.686;23.352;2023-07-31T14:30:18;5.72;;;3.92;;
41233;SDS011;26968;42.686;23.352;2023-07-31T14:32:43;4.82;;;3.80;;
41233;SDS011;26968;42.686;23.352;2023-07-31T14:35:09;4.80;;;3.90;;
41233;SDS011;26968;42.686;23.352;2023-07-31T14:37:42;8.35;;;4.40;;
41233;SDS011;26968;42.686;23.352;2023-07-31T14:40:09;9.73;;;4.40;;
41233;SDS011;26968;42.686;23.352;2023-07-31T14:42:36;8.68;;;3.88;;
41233;SDS011;26968;42.686;23.352;2023-07-31T14:45:02;5.78;;;4.22;;
41233;SDS011;26968;42.686;23.352;2023-07-31T14:47:29;6.05;;;3.60;;